createdAt,value
2022-11-01T00:02:04.453Z,6.17
2022-11-01T00:04:32.113Z,6.14
2022-11-01T00:06:59.751Z,6.16
2022-11-01T00:09:28.785Z,6.16
2022-11-01T00:11:56.418Z,6.44
2022-11-01T00:14:24.189Z,6.97
2022-11-01T00:16:52.043Z,7.38
2022-11-01T00:19:19.883Z,7.73
2022-11-01T00:21:49.447Z,7.87
2022-11-01T00:24:17.073Z,8.00
2022-11-01T00:26:46.162Z,8.24
2022-11-01T00:29:14.413Z,8.20
2022-11-01T00:31:42.080Z,8.29
2022-11-01T00:34:09.790Z,8.34
2022-11-01T00:36:37.615Z,8.37
2022-11-01T00:39:05.810Z,8.29
2022-11-01T00:41:33.437Z,8.16
2022-11-01T00:44:02.588Z,8.13
2022-11-01T00:46:30.575Z,8.00
2022-11-01T00:48:58.263Z,7.93
2022-11-01T00:51:26.076Z,7.88
2022-11-01T00:53:53.780Z,7.79
2022-11-01T00:56:21.433Z,7.65
2022-11-01T00:58:49.061Z,7.59
2022-11-01T01:01:20.263Z,7.53
2022-11-01T01:03:50.921Z,7.52
2022-11-01T01:06:18.524Z,7.50
2022-11-01T01:08:46.130Z,7.49
2022-11-01T01:11:13.741Z,7.46
2022-11-01T01:13:41.431Z,7.41
2022-11-01T01:16:10.253Z,7.35
2022-11-01T01:18:42.828Z,7.22
2022-11-01T01:21:10.464Z,7.19
2022-11-01T01:23:38.148Z,7.22
2022-11-01T01:26:09.657Z,7.24
2022-11-01T01:28:41.880Z,7.26
2022-11-01T01:31:12.774Z,7.27
2022-11-01T01:33:42.138Z,7.31
2022-11-01T01:36:11.535Z,7.30
2022-11-01T01:38:39.281Z,7.35
2022-11-01T01:41:27.901Z,7.33
2022-11-01T01:43:58.360Z,7.34
2022-11-01T01:46:25.971Z,7.23
2022-11-01T01:49:00.091Z,7.16
2022-11-01T01:51:29.203Z,7.06
2022-11-01T01:54:01.547Z,7.01
2022-11-01T01:56:32.936Z,6.94
2022-11-01T01:59:07.620Z,6.89
2022-11-01T02:01:37.948Z,6.87
2022-11-01T02:04:15.615Z,6.94
2022-11-01T02:06:43.596Z,6.98
2022-11-01T02:09:12.940Z,6.91
2022-11-01T02:11:40.655Z,6.93
2022-11-01T02:14:08.914Z,6.92
2022-11-01T02:16:48.176Z,6.90
2022-11-01T02:19:40.854Z,6.86
2022-11-01T02:22:14.537Z,6.81
2022-11-01T02:25:10.108Z,6.78
2022-11-01T02:27:58.026Z,6.70
2022-11-01T02:30:31.442Z,6.68
2022-11-01T02:33:16.065Z,6.64
2022-11-01T02:35:53.357Z,6.64
2022-11-01T02:38:27.652Z,6.70
2022-11-01T02:41:04.591Z,7.00
2022-11-01T02:43:37.745Z,7.25
2022-11-01T02:46:22.760Z,7.58
2022-11-01T02:48:53.060Z,7.82
2022-11-01T02:51:26.636Z,7.93
2022-11-01T02:53:57.854Z,8.02
2022-11-01T02:56:28.486Z,8.28
2022-11-01T02:58:56.611Z,8.47
2022-11-01T03:01:29.050Z,8.43
2022-11-01T03:03:59.866Z,8.44
2022-11-01T03:06:34.851Z,8.39
2022-11-01T03:09:11.725Z,8.17
2022-11-01T03:11:50.869Z,8.04
2022-11-01T03:14:27.374Z,7.94
2022-11-01T03:17:00.111Z,7.96
2022-11-01T03:19:40.670Z,8.04
2022-11-01T03:22:13.134Z,8.04
2022-11-01T03:24:48.404Z,8.12
2022-11-01T03:27:21.352Z,8.12
2022-11-01T03:30:03.905Z,7.93
2022-11-01T03:32:39.758Z,7.85
2022-11-01T03:35:12.339Z,7.72
2022-11-01T03:37:44.212Z,7.59
2022-11-01T03:40:14.415Z,7.48
2022-11-01T03:42:46.573Z,7.45
2022-11-01T03:47:55.487Z,7.32
2022-11-01T03:50:26.888Z,7.30
2022-11-01T03:52:54.893Z,7.21
2022-11-01T03:55:23.054Z,7.11
2022-11-01T03:57:52.081Z,7.07
2022-11-01T04:00:22.205Z,6.96
2022-11-01T04:02:54.515Z,6.96
2022-11-01T04:05:23.827Z,7.01
2022-11-01T04:07:52.839Z,7.02
2022-11-01T04:10:21.757Z,7.01
2022-11-01T04:12:50.611Z,6.98
2022-11-01T04:15:36.785Z,6.98
2022-11-01T04:18:30.217Z,6.90
2022-11-01T04:20:57.999Z,6.82
2022-11-01T04:23:26.993Z,6.82
2022-11-01T04:25:54.761Z,6.78
2022-11-01T04:28:23.566Z,6.77
2022-11-01T04:30:51.478Z,6.75
2022-11-01T04:33:19.667Z,6.77
2022-11-01T04:35:48.060Z,6.84
2022-11-01T04:38:16.226Z,6.91
2022-11-01T04:40:45.393Z,6.99
2022-11-01T04:43:13.406Z,7.05
2022-11-01T04:45:41.638Z,6.92
2022-11-01T04:48:13.449Z,6.91
2022-11-01T04:50:43.272Z,6.82
2022-11-01T04:53:11.589Z,6.75
2022-11-01T04:55:39.231Z,6.67
2022-11-01T04:58:10.742Z,6.62
2022-11-01T05:00:39.163Z,6.59
2022-11-01T05:03:12.464Z,6.60
2022-11-01T05:05:43.629Z,6.52
2022-11-01T05:08:15.136Z,6.47
2022-11-01T05:10:44.349Z,6.48
2022-11-01T05:13:15.045Z,6.48
2022-11-01T05:15:53.575Z,6.44
2022-11-01T05:18:30.649Z,6.46
2022-11-01T05:20:58.474Z,6.51
2022-11-01T05:23:26.182Z,6.53
2022-11-01T05:25:53.839Z,6.57
2022-11-01T05:28:23.680Z,6.67
2022-11-01T05:30:51.347Z,6.60
2022-11-01T05:33:19.013Z,6.64
2022-11-01T05:35:49.542Z,6.68
2022-11-01T05:38:17.258Z,6.71
2022-11-01T05:40:44.949Z,6.79
2022-11-01T05:43:12.611Z,6.81
2022-11-01T05:45:43.937Z,6.87
2022-11-01T05:48:12.045Z,6.83
2022-11-01T05:50:39.744Z,6.88
2022-11-01T05:53:08.170Z,6.96
2022-11-01T05:55:36.328Z,6.89
2022-11-01T05:58:04.200Z,6.97
2022-11-01T06:00:32.313Z,7.04
2022-11-01T06:03:03.879Z,7.13
2022-11-01T06:05:32.618Z,7.36
2022-11-01T06:08:02.578Z,7.68
2022-11-01T06:10:30.284Z,8.18
2022-11-01T06:13:01.535Z,8.65
2022-11-01T06:15:29.425Z,9.13
2022-11-01T06:17:58.171Z,9.53
2022-11-01T06:20:27.352Z,9.87
2022-11-01T06:22:55.043Z,10.16
2022-11-01T06:25:25.742Z,10.40
2022-11-01T06:27:55.852Z,10.58
2022-11-01T06:30:23.532Z,10.69
2022-11-01T06:32:51.182Z,10.80
2022-11-01T06:35:18.872Z,10.94
2022-11-01T06:37:49.940Z,11.04
2022-11-01T06:40:17.812Z,11.08
2022-11-01T06:42:47.131Z,11.12
2022-11-01T06:45:16.017Z,11.18
2022-11-01T06:47:47.820Z,11.18
2022-11-01T06:50:15.601Z,11.20
2022-11-01T06:52:43.275Z,11.21
2022-11-01T06:55:12.360Z,11.24
2022-11-01T06:57:40.098Z,11.27
2022-11-01T07:00:09.195Z,11.34
2022-11-01T07:02:37.081Z,11.40
2022-11-01T07:05:05.135Z,11.44
2022-11-01T07:07:32.969Z,11.49
2022-11-01T07:10:03.528Z,11.57
2022-11-01T07:12:34.981Z,11.72
2022-11-01T07:15:03.393Z,11.79
2022-11-01T07:17:31.077Z,11.93
2022-11-01T07:19:58.782Z,12.03
2022-11-01T07:22:26.488Z,12.10
2022-11-01T07:24:54.179Z,12.20
2022-11-01T07:27:22.236Z,12.26
2022-11-01T07:29:51.291Z,12.38
2022-11-01T07:32:18.946Z,12.50
2022-11-01T07:34:46.611Z,12.63
2022-11-01T07:37:14.341Z,12.75
2022-11-01T07:39:42.048Z,12.85
2022-11-01T07:42:12.799Z,12.98
2022-11-01T07:44:45.204Z,13.07
2022-11-01T07:47:14.341Z,13.14
2022-11-01T07:49:42.144Z,13.23
2022-11-01T07:52:09.770Z,13.32
2022-11-01T07:54:42.549Z,13.46
2022-11-01T07:57:10.258Z,13.69
2022-11-01T07:59:37.997Z,13.95
2022-11-01T08:02:08.032Z,14.25
2022-11-01T08:04:37.378Z,14.60
2022-11-01T08:07:07.776Z,14.86
2022-11-01T08:09:35.423Z,15.17
2022-11-01T08:12:04.460Z,15.44
2022-11-01T08:14:32.239Z,15.65
2022-11-01T08:17:01.758Z,15.86
2022-11-01T08:19:29.758Z,15.91
2022-11-01T08:22:01.969Z,15.93
2022-11-01T08:24:29.677Z,15.93
2022-11-01T08:26:57.356Z,15.88
2022-11-01T08:29:25.077Z,15.77
2022-11-01T08:31:52.787Z,15.74
2022-11-01T08:34:20.545Z,15.65
2022-11-01T08:36:48.241Z,15.58
2022-11-01T08:39:17.253Z,15.46
2022-11-01T08:41:49.104Z,15.46
2022-11-01T08:44:17.671Z,15.45
2022-11-01T08:46:47.587Z,15.48
2022-11-01T08:49:15.534Z,15.47
2022-11-01T08:51:44.928Z,15.50
2022-11-01T08:54:13.135Z,15.63
2022-11-01T08:56:42.199Z,15.80
2022-11-01T08:59:10.048Z,15.95
2022-11-01T09:01:38.644Z,16.14
2022-11-01T09:04:07.464Z,16.26
2022-11-01T09:06:36.532Z,16.47
2022-11-01T09:09:04.965Z,16.52
2022-11-01T09:11:32.698Z,16.51
2022-11-01T09:14:01.794Z,16.49
2022-11-01T09:16:29.722Z,16.55
2022-11-01T09:19:01.502Z,16.64
2022-11-01T09:21:31.797Z,16.58
2022-11-01T09:23:59.973Z,16.60
2022-11-01T09:26:28.179Z,16.54
2022-11-01T09:28:58.426Z,16.49
2022-11-01T09:31:29.554Z,16.45
2022-11-01T09:33:57.994Z,16.47
2022-11-01T09:36:26.755Z,16.53
2022-11-01T09:38:55.176Z,16.56
2022-11-01T09:41:34.100Z,16.61
2022-11-01T09:44:05.047Z,16.72
2022-11-01T09:46:46.257Z,16.86
2022-11-01T09:49:21.452Z,17.01
2022-11-01T09:51:49.279Z,17.17
2022-11-01T09:54:17.996Z,17.23
2022-11-01T09:56:52.835Z,17.24
2022-11-01T09:59:30.501Z,17.21
2022-11-01T10:02:26.365Z,17.31
2022-11-01T10:05:19.193Z,17.23
2022-11-01T10:07:54.312Z,17.22
2022-11-01T10:10:36.755Z,17.25
2022-11-01T10:13:23.317Z,17.27
2022-11-01T10:15:58.952Z,17.33
2022-11-01T10:18:29.116Z,17.35
2022-11-01T10:21:00.562Z,17.39
2022-11-01T10:23:39.707Z,17.50
2022-11-01T10:26:09.060Z,17.42
2022-11-01T10:28:47.498Z,17.48
2022-11-01T10:31:17.410Z,17.48
2022-11-01T10:33:52.646Z,17.73
2022-11-01T10:36:24.595Z,17.82
2022-11-01T10:41:50.003Z,18.36
2022-11-01T10:44:25.534Z,18.38
2022-11-01T10:46:54.099Z,18.36
2022-11-01T10:49:40.470Z,18.45
2022-11-01T10:52:18.567Z,18.58
2022-11-01T10:54:47.669Z,18.68
2022-11-01T10:57:31.291Z,18.77
2022-11-01T11:00:04.192Z,18.87
2022-11-01T11:02:36.862Z,18.83
2022-11-01T11:05:06.550Z,18.70
2022-11-01T11:07:34.473Z,18.35
2022-11-01T11:10:03.993Z,18.20
2022-11-01T11:12:32.277Z,18.15
2022-11-01T11:15:07.195Z,18.24
2022-11-01T11:17:39.516Z,18.25
2022-11-01T11:20:13.887Z,18.26
2022-11-01T11:22:43.821Z,18.30
2022-11-01T11:25:17.372Z,18.37
2022-11-01T11:27:47.855Z,18.44
2022-11-01T11:30:28.059Z,18.63
2022-11-01T11:32:58.555Z,18.63
2022-11-01T11:35:29.433Z,18.76
2022-11-01T11:37:59.354Z,18.77
2022-11-01T11:40:27.988Z,18.66
2022-11-01T11:42:57.466Z,18.75
2022-11-01T11:45:28.366Z,18.63
2022-11-01T11:47:56.982Z,18.77
2022-11-01T11:50:34.324Z,18.75
2022-11-01T11:53:06.437Z,18.76
2022-11-01T11:55:41.922Z,18.85
2022-11-01T11:58:23.857Z,18.88
2022-11-01T12:01:00.826Z,18.89
2022-11-01T12:03:29.360Z,18.95
2022-11-01T12:06:09.546Z,19.02
2022-11-01T12:08:47.260Z,18.91
2022-11-01T12:11:15.784Z,18.87
2022-11-01T12:13:45.746Z,18.81
2022-11-01T12:16:20.216Z,18.74
2022-11-01T12:18:50.274Z,18.67
2022-11-01T12:21:25.960Z,18.71
2022-11-01T12:23:57.614Z,18.51
2022-11-01T12:26:29.352Z,18.55
2022-11-01T12:29:03.950Z,18.31
2022-11-01T12:31:32.091Z,18.14
2022-11-01T12:34:06.387Z,18.12
2022-11-01T12:36:44.220Z,18.15
2022-11-01T12:39:25.983Z,17.87
2022-11-01T12:41:59.313Z,17.80
2022-11-01T12:44:33.554Z,17.70
2022-11-01T12:47:06.948Z,17.65
2022-11-01T12:49:41.129Z,17.66
2022-11-01T12:52:19.977Z,17.53
2022-11-01T12:54:59.298Z,17.47
2022-11-01T12:57:27.061Z,17.47
2022-11-01T12:59:54.878Z,17.52
2022-11-01T13:02:56.304Z,17.66
2022-11-01T13:05:29.384Z,17.60
2022-11-01T13:08:08.810Z,17.56
2022-11-01T13:13:17.835Z,17.51
2022-11-01T13:15:57.705Z,17.45
2022-11-01T13:18:41.237Z,17.34
2022-11-01T13:21:14.627Z,17.39
2022-11-01T13:23:48.963Z,17.34
2022-11-01T13:26:24.129Z,17.26
2022-11-01T13:29:03.761Z,17.21
2022-11-01T13:31:57.457Z,17.23
2022-11-01T13:34:37.643Z,17.24
2022-11-01T13:37:14.437Z,17.22
2022-11-01T13:39:58.970Z,17.14
2022-11-01T13:42:34.485Z,17.12
2022-11-01T13:45:14.479Z,17.15
2022-11-01T13:47:53.735Z,17.19
2022-11-01T13:50:39.767Z,17.37
2022-11-01T13:53:11.086Z,17.35
2022-11-01T13:55:46.194Z,17.37
2022-11-01T13:58:18.861Z,17.46
2022-11-01T14:00:49.272Z,17.47
2022-11-01T14:03:20.066Z,17.50
2022-11-01T14:05:49.329Z,17.30
2022-11-01T14:08:28.967Z,17.27
2022-11-01T14:10:58.303Z,17.21
2022-11-01T14:13:35.523Z,17.17
2022-11-01T14:16:20.467Z,17.07
2022-11-01T14:19:14.746Z,17.10
2022-11-01T14:21:46.927Z,17.01
2022-11-01T14:24:32.020Z,17.09
2022-11-01T14:27:07.862Z,17.14
2022-11-01T14:29:37.138Z,17.05
2022-11-01T14:32:05.235Z,17.01
2022-11-01T14:34:36.195Z,16.91
2022-11-01T14:37:16.348Z,16.90
2022-11-01T14:39:51.855Z,16.79
2022-11-01T14:42:26.373Z,16.68
2022-11-01T14:44:58.603Z,16.55
2022-11-01T14:47:35.426Z,16.51
2022-11-01T14:50:15.300Z,16.49
2022-11-01T14:52:48.280Z,16.44
2022-11-01T14:55:21.509Z,16.29
2022-11-01T14:57:50.731Z,16.20
2022-11-01T15:00:29.747Z,16.22
2022-11-01T15:05:32.741Z,16.07
2022-11-01T15:08:00.745Z,16.06
2022-11-01T15:10:29.586Z,16.00
2022-11-01T15:13:02.590Z,15.99
2022-11-01T15:15:34.143Z,15.99
2022-11-01T15:18:06.196Z,15.98
2022-11-01T15:20:39.655Z,15.88
2022-11-01T15:23:11.155Z,15.82
2022-11-01T15:25:40.678Z,15.80
2022-11-01T15:28:20.184Z,15.79
2022-11-01T15:30:56.156Z,15.78
2022-11-01T15:33:27.838Z,15.75
2022-11-01T15:35:56.311Z,15.70
2022-11-01T15:38:24.483Z,15.66
2022-11-01T15:40:53.163Z,15.56
2022-11-01T15:43:24.005Z,15.56
2022-11-01T15:45:56.085Z,15.55
2022-11-01T15:48:26.819Z,15.44
2022-11-01T15:50:58.492Z,15.35
2022-11-01T15:53:29.286Z,15.25
2022-11-01T15:56:04.313Z,15.25
2022-11-01T15:58:37.699Z,15.13
2022-11-01T16:01:13.288Z,14.95
2022-11-01T16:03:44.879Z,14.85
2022-11-01T16:06:17.467Z,14.76
2022-11-01T16:08:49.194Z,14.68
2022-11-01T16:11:20.860Z,14.55
2022-11-01T16:13:52.806Z,14.54
2022-11-01T16:18:47.497Z,14.45
2022-11-01T16:21:27.762Z,14.43
2022-11-01T16:24:08.350Z,14.32
2022-11-01T16:26:55.909Z,14.23
2022-11-01T16:29:42.508Z,14.13
2022-11-01T16:32:20.086Z,14.07
2022-11-01T16:34:48.021Z,14.05
2022-11-01T16:37:23.744Z,13.97
2022-11-01T16:39:52.070Z,13.90
2022-11-01T16:42:20.580Z,13.84
2022-11-01T16:44:55.296Z,13.83
2022-11-01T16:47:23.638Z,13.79
2022-11-01T16:49:55.002Z,13.75
2022-11-01T16:52:22.947Z,13.71
2022-11-01T16:54:51.436Z,13.63
2022-11-01T16:57:24.969Z,13.61
2022-11-01T16:59:57.718Z,13.62
2022-11-01T17:02:30.916Z,13.62
2022-11-01T17:05:06.206Z,13.56
2022-11-01T17:07:33.918Z,13.61
2022-11-01T17:10:01.734Z,13.57
2022-11-01T17:12:29.444Z,13.51
2022-11-01T17:14:58.518Z,13.51
2022-11-01T17:17:27.390Z,13.45
2022-11-01T17:20:00.451Z,13.44
2022-11-01T17:22:34.703Z,13.38
2022-11-01T17:25:03.470Z,13.36
2022-11-01T17:27:31.393Z,13.39
2022-11-01T17:30:00.619Z,13.38
2022-11-01T17:32:30.065Z,13.36
2022-11-01T17:34:57.778Z,13.34
2022-11-01T17:37:31.429Z,13.29
2022-11-01T17:40:02.013Z,13.24
2022-11-01T17:42:29.721Z,13.23
2022-11-01T17:44:57.420Z,13.20
2022-11-01T17:47:26.468Z,13.16
2022-11-01T17:49:54.169Z,13.24
2022-11-01T17:52:21.823Z,13.13
2022-11-01T17:54:50.617Z,13.12
2022-11-01T17:57:18.350Z,13.06
2022-11-01T17:59:46.213Z,13.02
2022-11-01T18:02:14.054Z,12.96
2022-11-01T18:04:43.296Z,12.93
2022-11-01T18:07:13.174Z,12.90
2022-11-01T18:09:41.271Z,12.99
2022-11-01T18:12:15.882Z,12.96
2022-11-01T18:17:32.955Z,12.88
2022-11-01T18:20:10.072Z,12.83
2022-11-01T18:22:45.223Z,12.80
2022-11-01T18:25:24.721Z,12.74
2022-11-01T18:27:52.518Z,12.75
2022-11-01T18:30:21.348Z,12.72
2022-11-01T18:32:57.806Z,12.81
2022-11-01T18:35:32.675Z,12.82
2022-11-01T18:38:17.935Z,12.71
2022-11-01T18:40:57.153Z,12.65
2022-11-01T18:43:24.998Z,12.69
2022-11-01T18:46:18.715Z,12.63
2022-11-01T18:48:42.355Z,12.55
2022-11-01T18:51:17.354Z,12.58
2022-11-01T18:53:45.033Z,12.51
2022-11-01T18:56:21.115Z,12.44
2022-11-01T18:58:50.007Z,12.48
2022-11-01T19:01:21.015Z,12.41
2022-11-01T19:04:01.652Z,12.36
2022-11-01T19:06:33.463Z,12.38
2022-11-01T19:09:10.679Z,12.36
2022-11-01T19:11:38.351Z,12.37
2022-11-01T19:14:06.668Z,12.36
2022-11-01T19:16:34.429Z,12.33
2022-11-01T19:19:02.181Z,12.26
2022-11-01T19:21:35.640Z,12.17
2022-11-01T19:24:10.260Z,12.09
2022-11-01T19:26:40.635Z,12.02
2022-11-01T19:29:13.876Z,11.96
2022-11-01T19:31:44.613Z,11.83
2022-11-01T19:34:17.841Z,11.73
2022-11-01T19:36:49.235Z,11.66
2022-11-01T19:39:24.079Z,11.56
2022-11-01T19:41:53.872Z,11.49
2022-11-01T19:44:24.171Z,11.46
2022-11-01T19:46:55.816Z,11.43
2022-11-01T19:49:25.863Z,11.51
2022-11-01T19:52:15.192Z,11.47
2022-11-01T19:54:46.456Z,11.47
2022-11-01T19:59:52.044Z,11.50
2022-11-01T20:02:22.906Z,11.47
2022-11-01T20:04:56.259Z,11.42
2022-11-01T20:07:28.252Z,11.36
2022-11-01T20:09:58.801Z,11.19
2022-11-01T20:12:26.694Z,11.03
2022-11-01T20:14:54.638Z,11.03
2022-11-01T20:17:26.281Z,10.97
2022-11-01T20:19:54.249Z,10.93
2022-11-01T20:22:23.279Z,10.78
2022-11-01T20:24:52.341Z,10.72
2022-11-01T20:27:20.120Z,10.58
2022-11-01T20:29:47.809Z,10.49
2022-11-01T20:32:20.923Z,10.46
2022-11-01T20:34:48.817Z,10.40
2022-11-01T20:37:28.516Z,10.32
2022-11-01T20:39:58.340Z,10.24
2022-11-01T20:42:26.013Z,10.13
2022-11-01T20:44:53.716Z,10.06
2022-11-01T20:47:21.401Z,9.94
2022-11-01T20:49:49.057Z,9.89
2022-11-01T20:52:38.577Z,9.79
2022-11-01T20:55:06.980Z,9.82
2022-11-01T20:57:34.695Z,9.80
2022-11-01T21:00:02.885Z,9.80
2022-11-01T21:02:30.592Z,9.82
2022-11-01T21:05:02.626Z,9.78
2022-11-01T21:07:31.045Z,9.76
2022-11-01T21:10:00.133Z,9.76
2022-11-01T21:12:41.687Z,9.66
2022-11-01T21:15:30.899Z,9.58
2022-11-01T21:18:08.067Z,9.52
2022-11-01T21:20:37.629Z,9.49
2022-11-01T21:23:22.804Z,9.42
2022-11-01T21:25:55.161Z,9.30
2022-11-01T21:28:29.115Z,9.24
2022-11-01T21:31:02.291Z,9.20
2022-11-01T21:33:36.422Z,9.13
2022-11-01T21:36:14.112Z,9.06
2022-11-01T21:38:42.606Z,9.02
2022-11-01T21:41:24.578Z,8.97
2022-11-01T21:43:53.922Z,8.89
2022-11-01T21:46:23.165Z,8.80
2022-11-01T21:48:56.261Z,8.73
2022-11-01T21:51:24.677Z,8.66
2022-11-01T21:53:52.386Z,8.58
2022-11-01T21:56:20.013Z,8.57
2022-11-01T21:58:49.826Z,8.53
2022-11-01T22:01:21.432Z,8.48
2022-11-01T22:03:49.180Z,8.45
2022-11-01T22:06:19.770Z,8.48
2022-11-01T22:08:47.627Z,8.46
2022-11-01T22:11:15.295Z,8.47
2022-11-01T22:13:42.959Z,8.43
2022-11-01T22:16:10.621Z,8.34
2022-11-01T22:18:39.704Z,8.30
2022-11-01T22:21:07.438Z,8.33
2022-11-01T22:23:35.135Z,8.27
2022-11-01T22:26:02.752Z,8.23
2022-11-01T22:28:30.426Z,8.27
2022-11-01T22:30:58.154Z,8.22
2022-11-01T22:33:26.602Z,8.14
2022-11-01T22:35:55.910Z,8.17
2022-11-01T22:38:24.662Z,8.16
2022-11-01T22:43:36.628Z,8.16
2022-11-01T22:46:04.286Z,8.17
2022-11-01T22:48:32.249Z,8.15
2022-11-01T22:51:03.588Z,8.12
2022-11-01T22:53:32.107Z,8.11
2022-11-01T22:56:01.074Z,8.14
2022-11-01T23:04:35.190Z,7.96
2022-11-01T23:07:05.428Z,7.95
2022-11-01T23:09:33.090Z,7.92
2022-11-01T23:12:18.080Z,7.89
2022-11-01T23:14:46.701Z,7.87
2022-11-01T23:17:19.086Z,7.85
2022-11-01T23:19:50.693Z,7.86
2022-11-01T23:22:24.029Z,7.89
2022-11-01T23:24:53.628Z,7.98
2022-11-01T23:27:22.103Z,7.97
2022-11-01T23:29:53.013Z,8.03
2022-11-01T23:32:20.901Z,7.98
2022-11-01T23:34:50.330Z,7.95
2022-11-01T23:37:22.018Z,8.03
2022-11-01T23:39:49.698Z,7.98
2022-11-01T23:42:21.294Z,8.03
2022-11-01T23:44:53.124Z,8.03
2022-11-01T23:47:25.756Z,8.04
2022-11-01T23:50:03.562Z,7.98
2022-11-01T23:52:40.461Z,7.85
2022-11-01T23:55:17.110Z,7.82
2022-11-01T23:57:44.774Z,7.79
